Main page
METAR-TAF:

METAR-TAF

Airports :

Tozeur–Nefta International Airport

Tozeur, Tunisia

latitude: 33-55N, longitude: 008-06E, elevation: 87 m

Current weather observation

The report was made 11 minutes ago, at 11:00 UTC
Wind 14 kt from the West
Temperature 18°C
Humidity 39%
Pressure 1012 hPa
Visibility: 8000 m
Scattered clouds at a height of 3000 ft

METAR: DTTZ 291100Z 28014KT 8000 SCT030 18/04 Q1012

Time: 12:11 (11:11 UTC)

Forecast

The report was made 6 hours and 11 minutes ago, at 05:00 UTC
Forecast valid from 29 at 06 UTC to 30 at 06 UTC
Wind 15 kt from the West
Visibility 10 km or more
no clouds below 1500 m and no cumulonimbus
Temporary
from 29 at 10 UTC to 29 at 15 UTC
Wind 15 kt from the West with gusts up to 25 kt
Visibility: 4000 m
Few clouds at a height of 1000 ft
sand

TAF: DTTZ 290500Z 2906/3006 27015KT CAVOK TEMPO 2910/2915 26015G25KT 4000 SA FEW010

Weather observations and forecasts of more than 4000 airports (METAR and TAF reports).

The available stations are represented by yellow and red dots on the map.

Hover mouse over dot to see the name of the station.

Then click to see weather observations and forecasts.

To change the map : click on the green buttons with a black cross to zoom in, on the green button with a dash to zoom out, or on the green arrows for adjacent maps.


METAR-TAF: